createdAt,value
2017-11-17T00:00:57.321Z,4.10
2017-11-17T00:03:26.563Z,4.10
2017-11-17T00:05:55.814Z,4.10
2017-11-17T00:08:25.088Z,4.00
2017-11-17T00:10:54.436Z,3.90
2017-11-17T00:13:23.672Z,3.90
2017-11-17T00:15:53.013Z,3.90
2017-11-17T00:18:22.255Z,4.00
2017-11-17T00:20:51.508Z,4.00
2017-11-17T00:23:20.779Z,3.90
2017-11-17T00:25:50.794Z,4.10
2017-11-17T00:28:20.844Z,4.10
2017-11-17T00:30:50.106Z,4.10
2017-11-17T00:33:19.353Z,4.10
2017-11-17T00:35:48.596Z,4.20
2017-11-17T00:38:17.887Z,4.20
2017-11-17T00:40:47.132Z,4.20
2017-11-17T00:43:16.373Z,4.30
2017-11-17T00:45:45.649Z,4.30
2017-11-17T00:48:14.900Z,4.30
2017-11-17T00:50:44.164Z,4.30
2017-11-17T00:53:13.428Z,4.30
2017-11-17T00:55:42.665Z,4.30
2017-11-17T00:58:12.020Z,4.40
2017-11-17T01:00:41.286Z,4.40
2017-11-17T01:03:10.527Z,4.40
2017-11-17T01:05:39.824Z,4.30
2017-11-17T01:08:09.076Z,4.40
2017-11-17T01:10:38.324Z,4.40
2017-11-17T01:13:07.610Z,4.40
2017-11-17T01:15:37.618Z,4.40
2017-11-17T01:18:06.869Z,4.40
2017-11-17T01:20:36.178Z,4.40
2017-11-17T01:23:05.427Z,4.40
2017-11-17T01:25:34.693Z,4.50
2017-11-17T01:28:03.976Z,4.40
2017-11-17T01:30:33.261Z,4.50
2017-11-17T01:33:02.509Z,4.40
2017-11-17T01:35:31.796Z,4.40
2017-11-17T01:38:01.033Z,4.40
2017-11-17T01:40:31.088Z,4.30
2017-11-17T01:43:00.338Z,4.30
2017-11-17T01:45:29.589Z,4.30
2017-11-17T01:47:58.865Z,4.30
2017-11-17T01:50:28.129Z,4.30
2017-11-17T01:52:57.400Z,4.30
2017-11-17T01:55:26.666Z,4.30
2017-11-17T01:57:55.923Z,4.30
2017-11-17T02:03:45.430Z,4.30
2017-11-17T02:06:17.184Z,4.20
2017-11-17T02:08:47.441Z,4.20
2017-11-17T02:11:18.360Z,4.20
2017-11-17T02:13:52.114Z,4.20
2017-11-17T02:16:22.276Z,4.20
2017-11-17T02:18:53.328Z,4.20
2017-11-17T02:21:26.545Z,4.30
2017-11-17T02:23:58.830Z,4.30
2017-11-17T02:26:33.505Z,4.30
2017-11-17T02:29:05.662Z,4.30
2017-11-17T02:31:37.407Z,4.30
2017-11-17T02:34:08.217Z,4.30
2017-11-17T02:36:39.158Z,4.30
2017-11-17T02:39:15.669Z,4.30
2017-11-17T02:41:47.528Z,4.30
2017-11-17T02:44:18.587Z,4.30
2017-11-17T02:46:48.782Z,4.30
2017-11-17T02:49:20.711Z,4.40
2017-11-17T02:51:52.426Z,4.30
2017-11-17T02:54:25.619Z,4.30
2017-11-17T02:56:58.565Z,4.30
2017-11-17T02:59:29.304Z,4.30
2017-11-17T03:02:01.247Z,4.30
2017-11-17T03:04:33.247Z,4.30
2017-11-17T03:07:04.196Z,4.40
2017-11-17T03:09:35.847Z,4.40
2017-11-17T03:12:07.733Z,4.40
2017-11-17T03:14:39.136Z,4.40
2017-11-17T03:17:11.144Z,4.40
2017-11-17T03:19:42.871Z,4.40
2017-11-17T03:22:15.468Z,4.40
2017-11-17T03:24:45.626Z,4.40
2017-11-17T03:27:16.895Z,4.40
2017-11-17T03:29:49.375Z,4.40
2017-11-17T03:32:19.231Z,4.30
2017-11-17T03:34:50.306Z,4.20
2017-11-17T03:37:20.115Z,4.20
2017-11-17T03:39:51.217Z,4.10
2017-11-17T03:42:22.197Z,4.10
2017-11-17T03:44:54.328Z,4.10
2017-11-17T03:47:26.112Z,4.10
2017-11-17T03:49:57.697Z,4.10
2017-11-17T03:52:27.638Z,4.10
2017-11-17T03:54:59.611Z,4.10
2017-11-17T03:57:30.877Z,4.10
2017-11-17T04:00:05.590Z,4.20
2017-11-17T04:02:36.377Z,4.20
2017-11-17T04:05:08.662Z,4.20
2017-11-17T04:07:39.784Z,4.30
2017-11-17T04:10:12.334Z,4.20
2017-11-17T04:12:46.241Z,4.30
2017-11-17T04:15:17.048Z,4.30
2017-11-17T04:17:50.886Z,4.20
2017-11-17T04:20:23.257Z,4.30
2017-11-17T04:22:57.952Z,4.20
2017-11-17T04:25:30.325Z,4.30
2017-11-17T04:28:02.437Z,4.30
2017-11-17T04:30:33.202Z,4.40
2017-11-17T04:33:06.219Z,4.30
2017-11-17T04:35:37.853Z,4.30
2017-11-17T04:38:08.090Z,4.30
2017-11-17T04:40:42.373Z,4.30
2017-11-17T04:43:13.585Z,4.20
2017-11-17T04:45:48.754Z,4.10
2017-11-17T04:48:19.746Z,4.10
2017-11-17T04:50:52.715Z,4.10
2017-11-17T04:53:24.211Z,4.00
2017-11-17T04:55:56.313Z,4.00
2017-11-17T04:58:29.628Z,4.10
2017-11-17T05:01:00.665Z,4.00
2017-11-17T05:03:35.455Z,4.10
2017-11-17T05:06:11.127Z,4.10
2017-11-17T05:08:46.428Z,4.00
2017-11-17T05:11:21.720Z,4.00
2017-11-17T05:13:58.825Z,4.00
2017-11-17T05:16:48.487Z,4.10
2017-11-17T05:19:23.634Z,4.10
2017-11-17T05:21:56.222Z,4.10
2017-11-17T05:24:27.595Z,4.10
2017-11-17T05:30:03.594Z,4.10
2017-11-17T05:32:33.818Z,4.20
2017-11-17T05:35:05.520Z,4.20
2017-11-17T05:37:41.345Z,4.20
2017-11-17T05:40:18.663Z,4.20
2017-11-17T05:42:53.304Z,4.20
2017-11-17T05:48:04.523Z,4.30
2017-11-17T05:50:35.711Z,4.30
2017-11-17T05:53:08.555Z,4.30
2017-11-17T05:55:41.716Z,4.40
2017-11-17T05:58:13.625Z,4.40
2017-11-17T06:00:45.248Z,4.40
2017-11-17T06:03:15.524Z,4.50
2017-11-17T06:05:48.532Z,4.40
2017-11-17T06:08:18.766Z,4.40
2017-11-17T06:10:52.729Z,4.40
2017-11-17T06:13:24.063Z,4.40
2017-11-17T06:15:54.035Z,4.30
2017-11-17T06:18:30.894Z,4.30
2017-11-17T06:21:04.235Z,4.30
2017-11-17T06:23:38.357Z,4.30
2017-11-17T06:26:09.421Z,4.30
2017-11-17T06:28:41.990Z,4.30
2017-11-17T06:31:12.370Z,4.30
2017-11-17T06:33:43.140Z,4.30
2017-11-17T06:36:16.155Z,4.40
2017-11-17T06:38:46.970Z,4.40
2017-11-17T06:41:18.104Z,4.50
2017-11-17T06:43:49.153Z,4.50
2017-11-17T06:46:20.077Z,4.50
2017-11-17T06:48:52.698Z,4.50
2017-11-17T06:51:25.123Z,4.50
2017-11-17T06:53:58.907Z,4.50
2017-11-17T06:56:32.543Z,4.50
2017-11-17T06:59:03.957Z,4.60
2017-11-17T07:01:34.353Z,4.40
2017-11-17T07:04:04.192Z,4.40
2017-11-17T07:06:34.121Z,4.40
2017-11-17T07:09:05.466Z,4.30
2017-11-17T07:11:35.798Z,4.30
2017-11-17T07:14:09.153Z,4.30
2017-11-17T07:16:39.235Z,4.30
2017-11-17T07:21:55.838Z,4.30
2017-11-17T07:24:33.368Z,4.40
2017-11-17T07:27:05.318Z,4.30
2017-11-17T07:32:38.511Z,4.40
2017-11-17T07:35:10.215Z,4.50
2017-11-17T07:40:17.648Z,4.60
2017-11-17T07:42:48.347Z,4.50
2017-11-17T07:45:18.820Z,4.50
2017-11-17T07:47:49.644Z,4.50
2017-11-17T07:50:21.881Z,4.50
2017-11-17T07:52:52.765Z,4.50
2017-11-17T07:55:25.119Z,4.50
2017-11-17T07:57:57.576Z,4.50
2017-11-17T08:00:30.156Z,4.50
2017-11-17T08:03:02.855Z,4.50
2017-11-17T08:05:34.264Z,4.50
2017-11-17T08:08:05.317Z,4.50
2017-11-17T08:10:35.873Z,4.50
2017-11-17T08:13:06.431Z,4.50
2017-11-17T08:15:37.138Z,4.50
2017-11-17T08:18:24.557Z,4.60
2017-11-17T08:20:54.276Z,4.60
2017-11-17T08:23:24.900Z,4.60
2017-11-17T08:25:54.499Z,4.60
2017-11-17T08:28:26.559Z,4.70
2017-11-17T08:30:58.050Z,4.70
2017-11-17T08:33:28.969Z,4.60
2017-11-17T08:36:01.215Z,4.50
2017-11-17T08:38:32.441Z,4.60
2017-11-17T08:41:05.473Z,4.60
2017-11-17T08:43:39.440Z,4.60
2017-11-17T08:46:11.907Z,4.60
2017-11-17T08:48:42.906Z,4.70
2017-11-17T08:51:15.315Z,4.70
2017-11-17T08:53:49.757Z,4.80
2017-11-17T08:56:19.874Z,4.90
2017-11-17T08:58:52.577Z,4.80
2017-11-17T09:01:22.917Z,4.80
2017-11-17T09:03:54.688Z,4.90
2017-11-17T09:06:28.078Z,5.00
2017-11-17T09:09:00.361Z,5.00
2017-11-17T09:11:36.422Z,5.00
2017-11-17T09:14:08.757Z,5.00
2017-11-17T09:16:41.022Z,5.00
2017-11-17T09:19:11.778Z,5.00
2017-11-17T09:21:44.647Z,5.10
2017-11-17T09:24:15.027Z,5.10
2017-11-17T09:26:47.175Z,5.00
2017-11-17T09:29:18.527Z,4.90
2017-11-17T09:31:51.081Z,4.90
2017-11-17T09:34:23.845Z,4.90
2017-11-17T09:36:57.218Z,4.90
2017-11-17T09:39:30.983Z,5.00
2017-11-17T09:42:04.994Z,5.00
2017-11-17T09:44:36.230Z,5.00
2017-11-17T09:47:08.060Z,4.90
2017-11-17T09:49:41.051Z,4.90
2017-11-17T09:52:14.215Z,4.90
2017-11-17T09:54:48.457Z,5.00
2017-11-17T09:57:23.012Z,5.00
2017-11-17T09:59:53.491Z,4.90
2017-11-17T10:02:24.062Z,5.10
2017-11-17T10:04:54.905Z,5.20
2017-11-17T10:07:25.408Z,5.20
2017-11-17T10:09:56.491Z,5.30
2017-11-17T10:12:28.380Z,5.30
2017-11-17T10:14:58.910Z,5.20
2017-11-17T10:17:28.894Z,5.30
2017-11-17T10:19:58.999Z,5.30
2017-11-17T10:22:29.756Z,5.40
2017-11-17T10:24:59.987Z,5.40
2017-11-17T10:27:31.615Z,5.50
2017-11-17T10:30:01.552Z,5.50
2017-11-17T10:32:31.507Z,5.60
2017-11-17T10:35:03.737Z,5.50
2017-11-17T10:37:37.564Z,5.50
2017-11-17T10:40:13.384Z,5.50
2017-11-17T10:42:46.027Z,5.60
2017-11-17T10:45:25.954Z,5.60
2017-11-17T10:47:55.885Z,5.70
2017-11-17T10:50:29.943Z,5.80
2017-11-17T10:53:00.971Z,5.80
2017-11-17T10:55:31.189Z,5.80
2017-11-17T10:58:01.461Z,5.80
2017-11-17T11:00:32.937Z,5.80
2017-11-17T11:03:05.212Z,5.80
2017-11-17T11:05:37.107Z,5.80
2017-11-17T11:08:07.865Z,5.80
2017-11-17T11:10:39.427Z,5.80
2017-11-17T11:13:09.269Z,5.90
2017-11-17T11:15:39.127Z,5.90
2017-11-17T11:18:13.693Z,5.90
2017-11-17T11:20:44.986Z,6.00
2017-11-17T11:23:19.132Z,6.00
2017-11-17T11:28:35.574Z,6.10
2017-11-17T11:31:07.773Z,6.10
2017-11-17T11:33:43.571Z,6.00
2017-11-17T11:36:18.338Z,5.90
2017-11-17T11:38:55.011Z,5.90
2017-11-17T11:41:33.054Z,5.80
2017-11-17T11:44:16.072Z,5.80
2017-11-17T11:47:00.705Z,5.80
2017-11-17T11:52:17.922Z,6.00
2017-11-17T11:55:02.678Z,6.00
2017-11-17T11:57:33.804Z,6.10
2017-11-17T12:00:16.706Z,6.10
2017-11-17T12:02:48.908Z,6.00
2017-11-17T12:05:25.980Z,6.00
2017-11-17T12:08:01.039Z,6.10
2017-11-17T12:14:10.430Z,6.10
2017-11-17T12:16:39.713Z,6.10
2017-11-17T12:19:09.013Z,6.10
2017-11-17T12:21:38.278Z,6.10
2017-11-17T12:24:07.582Z,6.10
2017-11-17T12:26:37.472Z,6.10
2017-11-17T12:29:08.888Z,6.20
2017-11-17T12:31:40.527Z,6.20
2017-11-17T12:34:10.994Z,6.20
2017-11-17T12:36:40.258Z,6.20
2017-11-17T12:39:09.534Z,6.20
2017-11-17T12:44:56.389Z,6.30
2017-11-17T12:47:26.404Z,6.40
2017-11-17T12:49:56.550Z,6.30
2017-11-17T12:52:26.574Z,6.20
2017-11-17T12:54:55.909Z,6.20
2017-11-17T12:57:25.190Z,6.20
2017-11-17T12:59:54.441Z,6.20
2017-11-17T13:03:12.194Z,6.30
2017-11-17T13:05:49.074Z,6.40
2017-11-17T13:08:18.396Z,6.30
2017-11-17T13:10:47.664Z,6.30
2017-11-17T13:13:17.748Z,6.20
2017-11-17T13:15:47.730Z,6.20
2017-11-17T13:18:17.001Z,6.20
2017-11-17T13:20:46.255Z,6.20
2017-11-17T13:23:20.424Z,6.20
2017-11-17T13:25:49.690Z,6.20
2017-11-17T13:28:23.384Z,6.30
2017-11-17T13:30:52.665Z,6.30
2017-11-17T13:33:21.970Z,6.30
2017-11-17T13:35:51.237Z,6.30
2017-11-17T13:38:20.497Z,6.30
2017-11-17T13:40:49.774Z,6.40
2017-11-17T13:43:19.092Z,6.40
2017-11-17T13:45:48.360Z,6.40
2017-11-17T13:48:17.693Z,6.40
2017-11-17T13:50:46.937Z,6.40
2017-11-17T13:53:16.275Z,6.30
2017-11-17T13:55:45.613Z,6.20
2017-11-17T13:58:15.653Z,6.20
2017-11-17T14:00:44.959Z,6.20
2017-11-17T14:03:14.209Z,6.30
2017-11-17T14:05:43.472Z,6.40
2017-11-17T14:08:12.792Z,6.40
2017-11-17T14:10:42.016Z,6.50
2017-11-17T14:16:23.125Z,6.60
2017-11-17T14:19:01.669Z,6.60
2017-11-17T14:21:35.700Z,6.60
2017-11-17T14:24:09.082Z,6.60
2017-11-17T14:26:42.907Z,6.60
2017-11-17T14:29:13.791Z,6.70
2017-11-17T14:31:47.298Z,6.80
2017-11-17T14:34:20.344Z,6.80
2017-11-17T14:36:58.098Z,6.90
2017-11-17T14:39:36.373Z,6.90
2017-11-17T14:47:53.173Z,7.00
2017-11-17T14:50:26.038Z,7.10
2017-11-17T14:53:02.976Z,7.00
2017-11-17T14:55:38.176Z,7.10
2017-11-17T15:01:00.650Z,7.00
2017-11-17T15:06:16.705Z,7.00
2017-11-17T15:08:46.008Z,7.10
2017-11-17T15:11:15.267Z,7.10
2017-11-17T15:13:44.520Z,7.20
2017-11-17T15:16:14.545Z,7.10
2017-11-17T15:18:44.552Z,7.00
2017-11-17T15:21:14.586Z,7.10
2017-11-17T15:23:43.867Z,7.10
2017-11-17T15:26:13.102Z,7.10
2017-11-17T15:28:42.365Z,7.10
2017-11-17T15:31:11.597Z,7.20
2017-11-17T15:33:40.844Z,7.20
2017-11-17T15:36:10.100Z,7.10
2017-11-17T15:38:39.365Z,7.10
2017-11-17T15:41:08.612Z,6.90
2017-11-17T15:43:37.838Z,6.90
2017-11-17T15:46:07.100Z,6.80
2017-11-17T15:48:36.341Z,6.80
2017-11-17T15:51:05.605Z,6.70
2017-11-17T15:53:34.847Z,6.60
2017-11-17T15:56:04.088Z,6.60
2017-11-17T15:58:33.321Z,6.60
2017-11-17T16:01:02.593Z,6.60
2017-11-17T16:03:31.824Z,6.60
2017-11-17T16:06:01.083Z,6.70
2017-11-17T16:08:30.369Z,6.70
2017-11-17T16:10:59.803Z,6.70
2017-11-17T16:13:29.052Z,6.70
2017-11-17T16:15:58.349Z,6.70
2017-11-17T16:18:27.592Z,6.80
2017-11-17T16:20:56.821Z,6.80
2017-11-17T16:23:26.086Z,6.90
2017-11-17T16:25:55.317Z,6.90
2017-11-17T16:28:24.561Z,6.90
2017-11-17T16:30:54.596Z,7.10
2017-11-17T16:33:23.856Z,7.10
2017-11-17T16:35:53.093Z,7.30
2017-11-17T16:38:23.103Z,8.10
2017-11-17T16:40:53.104Z,8.40
2017-11-17T16:43:22.354Z,8.40
2017-11-17T16:45:51.634Z,8.70
2017-11-17T16:48:21.654Z,8.90
2017-11-17T16:50:51.679Z,8.80
2017-11-17T16:53:21.005Z,8.80
2017-11-17T16:55:50.284Z,8.60
2017-11-17T16:58:19.558Z,8.50
2017-11-17T17:00:50.917Z,8.30
2017-11-17T17:03:20.939Z,8.20
2017-11-17T17:05:50.951Z,8.10
2017-11-17T17:08:20.204Z,8.00
2017-11-17T17:10:49.475Z,8.00
2017-11-17T17:13:18.759Z,7.80
2017-11-17T17:15:48.009Z,7.60
2017-11-17T17:18:17.261Z,7.50
2017-11-17T17:20:46.529Z,7.50
2017-11-17T17:23:15.769Z,7.30
2017-11-17T17:25:45.012Z,7.30
2017-11-17T17:28:14.268Z,7.30
2017-11-17T17:30:43.513Z,7.20
2017-11-17T17:33:12.851Z,7.00
2017-11-17T17:35:42.127Z,6.90
2017-11-17T17:38:11.373Z,6.90
2017-11-17T17:40:41.420Z,6.90
2017-11-17T17:43:10.661Z,6.90
2017-11-17T17:45:40.719Z,6.70
2017-11-17T17:48:09.975Z,6.70
2017-11-17T17:50:41.229Z,6.70
2017-11-17T17:53:11.240Z,6.70
2017-11-17T17:55:41.260Z,6.70
2017-11-17T17:58:11.276Z,6.80
2017-11-17T18:00:41.298Z,6.70
2017-11-17T18:03:12.137Z,6.80
2017-11-17T18:05:42.152Z,6.80
2017-11-17T18:08:12.180Z,6.80
2017-11-17T18:10:42.184Z,6.80
2017-11-17T18:13:12.209Z,6.80
2017-11-17T18:15:41.585Z,6.80
2017-11-17T18:18:10.830Z,6.80
2017-11-17T18:20:40.104Z,6.80
2017-11-17T18:23:10.138Z,6.70
2017-11-17T18:25:40.858Z,6.70
2017-11-17T18:28:10.127Z,6.70
2017-11-17T18:30:39.392Z,6.70
2017-11-17T18:33:08.632Z,6.70
2017-11-17T18:35:37.908Z,6.70
2017-11-17T18:38:07.188Z,6.70
2017-11-17T18:40:36.376Z,6.70
2017-11-17T18:43:05.629Z,6.60
2017-11-17T18:45:34.880Z,6.60
2017-11-17T18:51:25.930Z,6.60
2017-11-17T18:53:55.960Z,6.70
2017-11-17T18:56:25.195Z,6.60
2017-11-17T18:58:54.452Z,6.70
2017-11-17T19:01:24.469Z,6.80
2017-11-17T19:03:54.340Z,6.70
2017-11-17T19:06:24.348Z,6.80
2017-11-17T19:08:54.374Z,6.80
2017-11-17T19:11:23.607Z,6.90
2017-11-17T19:13:52.863Z,7.00
2017-11-17T19:16:22.107Z,6.90
2017-11-17T19:18:51.361Z,7.00
2017-11-17T19:21:20.817Z,7.10
2017-11-17T19:23:50.101Z,7.10
2017-11-17T19:26:19.488Z,7.10
2017-11-17T19:28:49.518Z,7.10
2017-11-17T19:31:18.764Z,7.20
2017-11-17T19:33:48.008Z,7.10
2017-11-17T19:36:18.088Z,7.10
2017-11-17T19:38:47.321Z,7.10
2017-11-17T19:41:19.375Z,7.00
2017-11-17T19:43:48.612Z,7.00
2017-11-17T19:46:18.642Z,7.00
2017-11-17T19:48:58.654Z,7.00
2017-11-17T19:51:27.893Z,7.00
2017-11-17T19:53:57.931Z,7.00
2017-11-17T19:56:39.337Z,7.00
2017-11-17T19:59:08.600Z,7.00
2017-11-17T20:01:37.876Z,7.00
2017-11-17T20:04:07.129Z,7.00
2017-11-17T20:06:36.371Z,7.00
2017-11-17T20:09:05.653Z,7.00
2017-11-17T20:11:35.662Z,7.00
2017-11-17T20:14:04.921Z,7.00
2017-11-17T20:16:34.173Z,7.00
2017-11-17T20:19:04.204Z,7.00
2017-11-17T20:21:34.223Z,6.90
2017-11-17T20:24:03.510Z,6.90
2017-11-17T20:26:33.512Z,7.00
2017-11-17T20:29:02.804Z,7.00
2017-11-17T20:31:32.038Z,7.00
2017-11-17T20:34:02.090Z,6.90
2017-11-17T20:36:31.334Z,6.90
2017-11-17T20:39:00.576Z,6.90
2017-11-17T20:41:30.597Z,6.90
2017-11-17T20:43:59.843Z,6.80
2017-11-17T20:46:29.115Z,6.80
2017-11-17T20:48:58.362Z,6.80
2017-11-17T20:51:28.422Z,6.60
2017-11-17T20:53:57.663Z,6.50
2017-11-17T20:56:28.530Z,6.50
2017-11-17T20:58:57.789Z,6.50
2017-11-17T21:01:27.045Z,6.50
2017-11-17T21:03:56.291Z,6.50
2017-11-17T21:06:25.554Z,6.50
2017-11-17T21:08:54.801Z,6.50
2017-11-17T21:11:24.066Z,6.50
2017-11-17T21:13:53.314Z,6.50
2017-11-17T21:16:23.325Z,6.60
2017-11-17T21:18:52.567Z,6.60
2017-11-17T21:21:21.816Z,6.60
2017-11-17T21:23:51.092Z,6.60
2017-11-17T21:26:20.349Z,6.70
2017-11-17T21:28:50.373Z,6.60
2017-11-17T21:31:19.627Z,6.60
2017-11-17T21:33:48.889Z,6.60
2017-11-17T21:36:18.192Z,6.70
2017-11-17T21:38:47.433Z,6.60
2017-11-17T21:41:16.692Z,6.50
2017-11-17T21:43:45.954Z,6.50
2017-11-17T21:46:15.205Z,6.50
2017-11-17T21:48:44.473Z,6.50
2017-11-17T21:51:13.732Z,6.50
2017-11-17T21:53:43.055Z,6.60
2017-11-17T21:56:12.267Z,6.50
2017-11-17T21:58:41.539Z,6.50
2017-11-17T22:01:10.975Z,6.40
2017-11-17T22:03:40.187Z,6.60
2017-11-17T22:06:09.449Z,6.60
2017-11-17T22:08:38.701Z,6.60
2017-11-17T22:11:07.945Z,6.70
2017-11-17T22:13:37.205Z,6.70
2017-11-17T22:16:06.461Z,6.60
2017-11-17T22:18:36.498Z,6.70
2017-11-17T22:21:05.748Z,6.70
2017-11-17T22:23:34.992Z,6.70
2017-11-17T22:26:04.286Z,6.80
2017-11-17T22:28:33.538Z,6.80
2017-11-17T22:31:02.796Z,6.60
2017-11-17T22:33:32.074Z,6.70
2017-11-17T22:36:02.084Z,6.70
2017-11-17T22:38:32.122Z,6.70
2017-11-17T22:41:01.378Z,6.70
2017-11-17T22:43:30.629Z,6.70
2017-11-17T22:45:59.893Z,6.70
2017-11-17T22:48:29.145Z,6.60
2017-11-17T22:50:58.427Z,6.60
2017-11-17T22:53:27.681Z,6.60
2017-11-17T22:55:56.925Z,6.60
2017-11-17T22:58:26.190Z,6.50
2017-11-17T23:00:55.461Z,6.60
2017-11-17T23:03:25.824Z,6.60
2017-11-17T23:05:55.143Z,6.60
2017-11-17T23:08:25.130Z,6.70
2017-11-17T23:10:54.386Z,6.70
2017-11-17T23:13:23.645Z,6.70
2017-11-17T23:15:53.708Z,6.90
2017-11-17T23:18:22.962Z,6.80
2017-11-17T23:20:52.217Z,6.90
2017-11-17T23:23:21.475Z,6.90
2017-11-17T23:25:51.485Z,6.90
2017-11-17T23:28:23.140Z,6.90
2017-11-17T23:30:53.166Z,6.90
2017-11-17T23:33:23.209Z,6.90
2017-11-17T23:35:52.479Z,6.90
2017-11-17T23:38:22.512Z,6.80
2017-11-17T23:40:51.765Z,6.80
2017-11-17T23:43:21.025Z,6.80
2017-11-17T23:45:50.291Z,6.80
2017-11-17T23:48:20.325Z,6.70
2017-11-17T23:50:49.582Z,6.70
2017-11-17T23:53:18.838Z,6.70
2017-11-17T23:55:48.084Z,6.70
2017-11-17T23:58:17.349Z,6.60
